Time;durP1;ratioP1;P1;durP2;ratioP2;P2;SDS_P1;SDS_P2;PMS_P1;PMS_P2;Temp;Humidity;BMP_temperature;BMP_pressure;BME280_temperature;BME280_humidity;BME280_pressure;Samples;Min_cycle;Max_cycle;Signal;HPM_P1;HPM_P2
2022/11/14 00:01:27;;;;;;;27.25;14.80;;;;;;;;;;4975236;28;20030;-64
2022/11/14 00:03:53;;;;;;;28.45;15.48;;;;;;;;;;4973943;28;20039;-62
2022/11/14 00:06:19;;;;;;;29.55;15.30;;;;;;;;;;4980709;28;20034;-62
2022/11/14 00:08:44;;;;;;;26.40;14.90;;;;;;;;;;4986003;28;20155;-63
2022/11/14 00:11:09;;;;;;;30.58;15.65;;;;;;;;;;4982503;28;20030;-63
2022/11/14 00:13:35;;;;;;;27.33;15.20;;;;;;;;;;4991462;28;20122;-62
2022/11/14 00:16:00;;;;;;;25.92;15.25;;;;;;;;;;4992614;28;20053;-62
2022/11/14 00:18:26;;;;;;;29.75;15.82;;;;;;;;;;4989407;28;20379;-62
2022/11/14 00:20:52;;;;;;;27.80;15.68;;;;;;;;;;4992017;28;20114;-62
2022/11/14 00:23:18;;;;;;;28.90;15.65;;;;;;;;;;4974383;28;20467;-62
2022/11/14 00:25:44;;;;;;;29.23;15.95;;;;;;;;;;4973492;28;20042;-62
2022/11/14 00:28:10;;;;;;;29.17;15.55;;;;;;;;;;4975723;28;20087;-62
2022/11/14 00:30:35;;;;;;;31.10;15.95;;;;;;;;;;4980133;28;20035;-63
2022/11/14 00:33:01;;;;;;;29.60;15.88;;;;;;;;;;4975516;28;20041;-63
2022/11/14 00:35:26;;;;;;;32.92;17.05;;;;;;;;;;4984759;28;20057;-63
2022/11/14 00:37:52;;;;;;;30.13;16.45;;;;;;;;;;4977753;28;20063;-63
2022/11/14 00:40:17;;;;;;;28.40;15.20;;;;;;;;;;4979551;28;20042;-63
2022/11/14 00:42:43;;;;;;;27.50;14.95;;;;;;;;;;4972124;28;20899;-63
2022/11/14 00:45:10;;;;;;;28.92;15.15;;;;;;;;;;4985416;28;20035;-63
2022/11/14 00:47:35;;;;;;;30.25;15.50;;;;;;;;;;4989222;28;20042;-63
2022/11/14 00:50:01;;;;;;;28.45;15.25;;;;;;;;;;4992782;28;20035;-63
2022/11/14 00:52:26;;;;;;;26.55;14.88;;;;;;;;;;4984440;28;20027;-62
2022/11/14 00:54:51;;;;;;;27.48;14.57;;;;;;;;;;4985123;28;20373;-62
2022/11/14 00:57:17;;;;;;;27.67;15.95;;;;;;;;;;4982406;28;20049;-62
2022/11/14 00:59:42;;;;;;;27.30;15.23;;;;;;;;;;4981747;28;20468;-63
2022/11/14 01:02:07;;;;;;;28.48;15.50;;;;;;;;;;4989334;28;20093;-64
2022/11/14 01:04:33;;;;;;;29.27;16.02;;;;;;;;;;4986568;28;20035;-63
2022/11/14 01:06:58;;;;;;;29.52;16.40;;;;;;;;;;4989366;28;20049;-63
2022/11/14 01:09:24;;;;;;;28.83;15.35;;;;;;;;;;4972245;28;20106;-62
2022/11/14 01:11:49;;;;;;;28.23;15.57;;;;;;;;;;4972389;28;20066;-62
2022/11/14 01:14:14;;;;;;;28.65;14.93;;;;;;;;;;4988756;28;20038;-62
2022/11/14 01:16:40;;;;;;;28.70;15.68;;;;;;;;;;4975678;28;20052;-62
2022/11/14 01:19:05;;;;;;;28.67;15.77;;;;;;;;;;4978530;28;20064;-63
2022/11/14 01:21:31;;;;;;;31.98;16.23;;;;;;;;;;4981295;28;20027;-62
2022/11/14 01:23:56;;;;;;;32.55;17.23;;;;;;;;;;4989248;28;20037;-62
2022/11/14 01:26:22;;;;;;;29.67;16.27;;;;;;;;;;4985140;28;20468;-62
2022/11/14 01:28:47;;;;;;;30.65;16.10;;;;;;;;;;4970578;28;20145;-62
2022/11/14 01:31:21;;;;;;;30.05;16.23;;;;;;;;;;4975168;28;20054;-62
2022/11/14 01:33:52;;;;;;;29.08;15.23;;;;;;;;;;4970627;28;20500;-62
2022/11/14 01:36:18;;;;;;;30.05;15.75;;;;;;;;;;4978060;28;20061;-63
2022/11/14 01:38:44;;;;;;;29.70;15.90;;;;;;;;;;4989922;28;20058;-63
2022/11/14 01:41:12;;;;;;;26.23;14.63;;;;;;;;;;4978889;28;20027;-62
2022/11/14 01:43:39;;;;;;;29.08;15.35;;;;;;;;;;4979244;28;20038;-62
2022/11/14 01:46:08;;;;;;;29.27;15.75;;;;;;;;;;4976545;28;20066;-63
2022/11/14 01:48:52;;;;;;;31.73;16.05;;;;;;;;;;4972969;28;20031;-63
2022/11/14 01:51:47;;;;;;;28.67;15.90;;;;;;;;;;4990676;28;20042;-63
2022/11/14 01:54:20;;;;;;;26.33;15.27;;;;;;;;;;4975102;28;20095;-63
2022/11/14 01:56:52;;;;;;;27.80;15.00;;;;;;;;;;4969730;28;20638;-63
2022/11/14 01:59:21;;;;;;;30.90;15.27;;;;;;;;;;4984036;28;20121;-64
2022/11/14 02:01:49;;;;;;;29.30;15.57;;;;;;;;;;4982144;28;20061;-63
2022/11/14 02:04:32;;;;;;;30.98;15.57;;;;;;;;;;4990736;28;20034;-62
2022/11/14 02:07:01;;;;;;;29.20;15.43;;;;;;;;;;4975086;28;20080;-62
2022/11/14 02:09:29;;;;;;;29.30;14.98;;;;;;;;;;4982032;28;20030;-62
2022/11/14 02:11:58;;;;;;;30.02;15.32;;;;;;;;;;4972839;28;20038;-63
2022/11/14 02:14:26;;;;;;;30.25;16.20;;;;;;;;;;4989300;28;20054;-63
2022/11/14 02:16:51;;;;;;;31.73;16.67;;;;;;;;;;4978421;28;20035;-63
2022/11/14 02:19:17;;;;;;;32.38;16.40;;;;;;;;;;4977974;28;20049;-62
2022/11/14 02:21:42;;;;;;;31.60;16.63;;;;;;;;;;4991081;28;20026;-63
2022/11/14 02:24:09;;;;;;;31.77;16.63;;;;;;;;;;4983945;28;20385;-63
2022/11/14 02:26:35;;;;;;;31.05;15.73;;;;;;;;;;4976906;28;20121;-62
2022/11/14 02:29:00;;;;;;;30.02;15.73;;;;;;;;;;4985122;28;20118;-62
2022/11/14 02:31:25;;;;;;;30.33;16.13;;;;;;;;;;4975572;28;20030;-63
2022/11/14 02:33:51;;;;;;;31.45;16.02;;;;;;;;;;5021358;28;20033;-64
2022/11/14 02:36:16;;;;;;;28.85;16.38;;;;;;;;;;4975853;28;20435;-63
2022/11/14 02:38:41;;;;;;;29.65;15.73;;;;;;;;;;4986742;28;20038;-63
2022/11/14 02:41:07;;;;;;;29.10;15.90;;;;;;;;;;4987200;28;20034;-63
2022/11/14 02:43:32;;;;;;;31.65;16.70;;;;;;;;;;4978166;28;20452;-62
2022/11/14 02:45:58;;;;;;;31.40;16.40;;;;;;;;;;4986040;28;20045;-62
2022/11/14 02:48:23;;;;;;;30.27;15.98;;;;;;;;;;4983654;28;20026;-63
2022/11/14 02:50:48;;;;;;;30.17;15.70;;;;;;;;;;4971209;28;20361;-62
2022/11/14 02:53:14;;;;;;;32.28;16.38;;;;;;;;;;4979675;28;20037;-64
2022/11/14 02:55:39;;;;;;;31.60;16.77;;;;;;;;;;4987958;28;20034;-63
2022/11/14 02:58:06;;;;;;;30.40;15.93;;;;;;;;;;4987226;28;20050;-63
2022/11/14 03:00:31;;;;;;;33.83;16.50;;;;;;;;;;4983211;28;20193;-63
2022/11/14 03:02:57;;;;;;;32.08;15.65;;;;;;;;;;4984195;28;20598;-63
2022/11/14 03:05:22;;;;;;;32.63;17.20;;;;;;;;;;4976311;28;20038;-63
2022/11/14 03:07:52;;;;;;;30.83;16.27;;;;;;;;;;4975161;28;20031;-63
2022/11/14 03:10:18;;;;;;;30.67;15.63;;;;;;;;;;4978874;28;20046;-63
2022/11/14 03:12:43;;;;;;;31.05;16.15;;;;;;;;;;5004481;28;20542;-63
2022/11/14 03:15:09;;;;;;;31.48;16.88;;;;;;;;;;4980513;28;20041;-63
2022/11/14 03:17:34;;;;;;;31.30;16.27;;;;;;;;;;4973775;28;21474;-63
2022/11/14 03:20:00;;;;;;;31.70;16.17;;;;;;;;;;4980060;28;20405;-63
2022/11/14 03:22:26;;;;;;;31.92;15.85;;;;;;;;;;4989356;28;20026;-63
2022/11/14 03:24:52;;;;;;;34.38;17.00;;;;;;;;;;4984617;28;20026;-62
2022/11/14 03:27:18;;;;;;;35.13;16.98;;;;;;;;;;4977410;28;20122;-63
2022/11/14 03:29:43;;;;;;;34.63;16.83;;;;;;;;;;4985281;28;20040;-63
2022/11/14 03:32:09;;;;;;;33.92;17.02;;;;;;;;;;4994386;28;20058;-63
2022/11/14 03:34:34;;;;;;;30.33;15.82;;;;;;;;;;4976263;28;20073;-63
2022/11/14 03:37:00;;;;;;;31.15;16.15;;;;;;;;;;4973892;28;20453;-63
2022/11/14 03:39:26;;;;;;;31.25;16.55;;;;;;;;;;5016946;28;20121;-63
2022/11/14 03:41:51;;;;;;;30.48;16.33;;;;;;;;;;4983824;28;20045;-63
2022/11/14 03:44:16;;;;;;;29.23;15.52;;;;;;;;;;4990142;28;20109;-62
2022/11/14 03:46:42;;;;;;;30.83;15.63;;;;;;;;;;4977754;28;20035;-63
2022/11/14 03:49:07;;;;;;;29.85;15.40;;;;;;;;;;4975207;28;20070;-62
2022/11/14 03:51:33;;;;;;;30.45;15.75;;;;;;;;;;4990482;28;20113;-63
2022/11/14 03:53:58;;;;;;;28.63;15.32;;;;;;;;;;4977307;28;20442;-62
2022/11/14 03:56:23;;;;;;;32.95;16.13;;;;;;;;;;4974304;28;20039;-63
2022/11/14 03:58:49;;;;;;;29.88;16.25;;;;;;;;;;4973886;28;20047;-62
2022/11/14 04:01:14;;;;;;;32.05;16.92;;;;;;;;;;4993701;28;20034;-63
2022/11/14 04:03:40;;;;;;;32.80;16.55;;;;;;;;;;4984423;28;20430;-63
2022/11/14 04:06:05;;;;;;;31.25;16.15;;;;;;;;;;4973306;28;20077;-62
2022/11/14 04:08:31;;;;;;;31.48;15.43;;;;;;;;;;4985946;28;20105;-62
2022/11/14 04:10:56;;;;;;;30.38;15.93;;;;;;;;;;4990627;28;20026;-62
2022/11/14 04:13:22;;;;;;;32.40;16.55;;;;;;;;;;4980787;28;20473;-62
2022/11/14 04:15:54;;;;;;;35.15;15.43;;;;;;;;;;4991797;28;20038;-63
2022/11/14 04:18:19;;;;;;;31.23;15.32;;;;;;;;;;4986483;28;20026;-63
2022/11/14 04:20:44;;;;;;;33.17;16.52;;;;;;;;;;4975110;28;20194;-62
2022/11/14 04:23:10;;;;;;;29.25;15.60;;;;;;;;;;4978245;28;20023;-63
2022/11/14 04:25:35;;;;;;;37.60;17.48;;;;;;;;;;4977740;28;20082;-63
2022/11/14 04:28:00;;;;;;;31.77;16.50;;;;;;;;;;4991740;28;20526;-62
2022/11/14 04:30:26;;;;;;;33.70;16.20;;;;;;;;;;4975913;28;20037;-62
2022/11/14 04:32:51;;;;;;;30.42;16.13;;;;;;;;;;5010910;28;20039;-63
2022/11/14 04:35:16;;;;;;;29.67;16.10;;;;;;;;;;4973546;28;20361;-62
2022/11/14 04:37:42;;;;;;;33.20;16.50;;;;;;;;;;4989805;28;20033;-63
2022/11/14 04:40:08;;;;;;;27.98;15.30;;;;;;;;;;4988653;28;20403;-63
2022/11/14 04:42:33;;;;;;;30.02;15.05;;;;;;;;;;4983393;28;20041;-62
2022/11/14 04:44:58;;;;;;;28.40;15.15;;;;;;;;;;4982422;28;20037;-62
2022/11/14 04:47:24;;;;;;;31.90;15.98;;;;;;;;;;4973134;28;20034;-63
2022/11/14 04:49:49;;;;;;;32.47;15.80;;;;;;;;;;4984394;28;20039;-63
2022/11/14 04:52:14;;;;;;;29.67;15.70;;;;;;;;;;4990576;28;20073;-63
2022/11/14 04:54:40;;;;;;;30.25;15.80;;;;;;;;;;4990484;28;20034;-63
2022/11/14 04:57:05;;;;;;;29.92;16.23;;;;;;;;;;4976084;28;20484;-63
2022/11/14 04:59:30;;;;;;;29.98;15.38;;;;;;;;;;4972922;28;20046;-63
2022/11/14 05:01:56;;;;;;;33.92;16.85;;;;;;;;;;4970076;28;20042;-62
2022/11/14 05:04:21;;;;;;;33.58;16.10;;;;;;;;;;4975249;28;20054;-62
2022/11/14 05:06:46;;;;;;;32.10;15.65;;;;;;;;;;4979227;28;20514;-63
2022/11/14 05:09:12;;;;;;;29.63;15.02;;;;;;;;;;4984224;28;20038;-62
2022/11/14 05:11:37;;;;;;;33.47;16.67;;;;;;;;;;4980260;28;20081;-63
2022/11/14 05:14:02;;;;;;;35.00;16.58;;;;;;;;;;4981812;28;20093;-63
2022/11/14 05:16:28;;;;;;;31.38;16.48;;;;;;;;;;4986447;28;20026;-63
2022/11/14 05:18:54;;;;;;;34.97;16.52;;;;;;;;;;4985096;28;20085;-62
2022/11/14 05:21:19;;;;;;;33.25;16.52;;;;;;;;;;4990424;28;20030;-63
2022/11/14 05:23:44;;;;;;;31.33;16.13;;;;;;;;;;4980781;28;20041;-63
2022/11/14 05:26:13;;;;;;;33.83;16.05;;;;;;;;;;5013239;28;20038;-63
2022/11/14 05:28:38;;;;;;;29.30;15.43;;;;;;;;;;4985915;28;20047;-63
2022/11/14 05:31:06;;;;;;;28.67;15.25;;;;;;;;;;4972072;28;20097;-63
2022/11/14 05:33:33;;;;;;;33.63;16.33;;;;;;;;;;4979548;28;20381;-63
2022/11/14 05:36:09;;;;;;;33.97;17.02;;;;;;;;;;4976321;28;20531;-63
2022/11/14 05:38:35;;;;;;;32.22;17.08;;;;;;;;;;4970467;28;20031;-64
2022/11/14 05:41:08;;;;;;;33.90;16.70;;;;;;;;;;4972051;28;20038;-67
2022/11/14 05:43:34;;;;;;;32.30;15.88;;;;;;;;;;4972086;28;20038;-62
2022/11/14 05:46:00;;;;;;;35.15;16.63;;;;;;;;;;4973219;28;20031;-63
2022/11/14 05:48:26;;;;;;;34.65;17.45;;;;;;;;;;4998243;28;20042;-63
2022/11/14 05:50:57;;;;;;;32.85;17.02;;;;;;;;;;5000816;28;20096;-63
2022/11/14 05:53:23;;;;;;;;;;;;;;;;;;4991064;28;20081;-61
2022/11/14 05:55:49;;;;;;;31.00;15.07;;;;;;;;;;4987357;28;20445;-63
2022/11/14 05:58:14;;;;;;;32.40;16.02;;;;;;;;;;4990970;28;20042;-62
2022/11/14 06:00:39;;;;;;;29.77;16.02;;;;;;;;;;4990360;28;20468;-63
2022/11/14 06:03:05;;;;;;;30.45;15.40;;;;;;;;;;4988808;28;20030;-62
2022/11/14 06:05:30;;;;;;;31.02;15.98;;;;;;;;;;4983190;28;20035;-63
2022/11/14 06:07:57;;;;;;;29.92;16.13;;;;;;;;;;4972181;28;20381;-62
2022/11/14 06:10:23;;;;;;;32.10;16.20;;;;;;;;;;4983337;28;20061;-62
2022/11/14 06:12:49;;;;;;;29.52;16.65;;;;;;;;;;4987190;28;20868;-62
2022/11/14 06:15:14;;;;;;;31.95;16.77;;;;;;;;;;4985406;28;20468;-62
2022/11/14 06:17:40;;;;;;;30.50;16.33;;;;;;;;;;4998618;28;20113;-64
2022/11/14 06:20:06;;;;;;;30.30;16.38;;;;;;;;;;4977387;28;20373;-64
2022/11/14 06:22:32;;;;;;;35.22;16.33;;;;;;;;;;4990024;28;20034;-62
2022/11/14 06:24:57;;;;;;;32.78;17.13;;;;;;;;;;4990308;28;20035;-65
2022/11/14 06:27:23;;;;;;;36.03;17.20;;;;;;;;;;4977633;28;20042;-65
2022/11/14 06:29:48;;;;;;;31.55;16.35;;;;;;;;;;4983792;28;20030;-65
2022/11/14 06:32:14;;;;;;;31.90;16.65;;;;;;;;;;4997846;28;20054;-61
2022/11/14 06:34:39;;;;;;;34.00;16.85;;;;;;;;;;4993793;28;20121;-62
2022/11/14 06:37:04;;;;;;;32.47;16.50;;;;;;;;;;4979337;28;20082;-61
2022/11/14 06:39:30;;;;;;;31.55;15.68;;;;;;;;;;4974958;28;20034;-62
2022/11/14 06:41:55;;;;;;;33.10;16.65;;;;;;;;;;4976640;28;20039;-62
2022/11/14 06:44:20;;;;;;;35.75;17.05;;;;;;;;;;4995295;28;20081;-63
2022/11/14 06:46:46;;;;;;;33.38;16.55;;;;;;;;;;4987309;28;20081;-64
2022/11/14 06:49:11;;;;;;;31.98;15.90;;;;;;;;;;4994866;28;20391;-64
2022/11/14 06:51:36;;;;;;;31.33;15.85;;;;;;;;;;4981191;28;20046;-63
2022/11/14 06:54:02;;;;;;;34.20;17.02;;;;;;;;;;4976099;28;20077;-63
2022/11/14 06:56:28;;;;;;;32.95;16.45;;;;;;;;;;4986975;28;20036;-65
2022/11/14 06:58:53;;;;;;;31.73;16.83;;;;;;;;;;4992895;28;20055;-66
2022/11/14 07:01:22;;;;;;;32.25;16.73;;;;;;;;;;4991378;28;20536;-66
2022/11/14 07:03:48;;;;;;;34.17;16.35;;;;;;;;;;4990593;28;20112;-65
2022/11/14 07:06:16;;;;;;;36.35;17.63;;;;;;;;;;4993691;28;20042;-64
2022/11/14 07:08:41;;;;;;;32.13;16.52;;;;;;;;;;4988408;28;20402;-64
2022/11/14 07:11:21;;;;;;;32.58;16.40;;;;;;;;;;4978525;28;20464;-65
2022/11/14 07:13:57;;;;;;;32.20;16.88;;;;;;;;;;4973136;28;20038;-64
2022/11/14 07:16:29;;;;;;;32.30;15.90;;;;;;;;;;4977457;28;20390;-63
2022/11/14 07:18:58;;;;;;;28.73;15.57;;;;;;;;;;4979163;28;20034;-64
2022/11/14 07:21:26;;;;;;;30.98;16.15;;;;;;;;;;4985302;28;20030;-65
2022/11/14 07:23:51;;;;;;;33.97;16.95;;;;;;;;;;4992705;28;20133;-64
2022/11/14 07:26:16;;;;;;;34.28;16.80;;;;;;;;;;4992872;28;20046;-64
2022/11/14 07:28:43;;;;;;;34.70;16.80;;;;;;;;;;4973228;28;20043;-65
2022/11/14 07:31:14;;;;;;;32.28;16.48;;;;;;;;;;4988637;28;20471;-63
2022/11/14 07:33:40;;;;;;;35.90;16.38;;;;;;;;;;4991668;28;20034;-64
2022/11/14 07:36:07;;;;;;;34.08;16.63;;;;;;;;;;4989485;28;20140;-62
2022/11/14 07:38:34;;;;;;;32.25;16.40;;;;;;;;;;4993474;28;20464;-64
2022/11/14 07:41:02;;;;;;;33.25;16.58;;;;;;;;;;4975420;28;20055;-63
2022/11/14 07:43:28;;;;;;;31.15;16.30;;;;;;;;;;4980915;28;20030;-64
2022/11/14 07:45:58;;;;;;;35.72;17.42;;;;;;;;;;4987802;28;20034;-64
2022/11/14 07:48:24;;;;;;;33.00;15.60;;;;;;;;;;4991921;28;20030;-66
2022/11/14 07:50:49;;;;;;;32.72;16.63;;;;;;;;;;4991528;28;20049;-63
2022/11/14 07:53:16;;;;;;;33.90;16.73;;;;;;;;;;4994000;28;20034;-63
2022/11/14 07:55:41;;;;;;;35.45;17.10;;;;;;;;;;4988539;28;20125;-63
2022/11/14 07:58:07;;;;;;;31.95;15.85;;;;;;;;;;4993780;28;20464;-65
2022/11/14 08:00:32;;;;;;;31.33;16.45;;;;;;;;;;4978286;28;20038;-64
2022/11/14 08:02:58;;;;;;;31.02;16.08;;;;;;;;;;4987467;28;20098;-64
2022/11/14 08:05:23;;;;;;;28.42;15.63;;;;;;;;;;4976221;28;20035;-63
2022/11/14 08:07:52;;;;;;;29.77;15.57;;;;;;;;;;4988165;28;20034;-65
2022/11/14 08:10:18;;;;;;;36.10;17.08;;;;;;;;;;4987387;28;20429;-64
2022/11/14 08:12:44;;;;;;;27.98;15.85;;;;;;;;;;4992688;28;20030;-63
2022/11/14 08:15:13;;;;;;;30.05;16.77;;;;;;;;;;4990571;28;20034;-63
2022/11/14 08:17:39;;;;;;;30.60;16.30;;;;;;;;;;4989779;28;20109;-63
2022/11/14 08:20:06;;;;;;;30.42;16.40;;;;;;;;;;4990068;28;20038;-65
2022/11/14 08:22:32;;;;;;;29.10;15.40;;;;;;;;;;4992415;28;20038;-65
2022/11/14 08:24:57;;;;;;;29.65;15.93;;;;;;;;;;4991090;28;20043;-63
2022/11/14 08:27:23;;;;;;;31.33;16.77;;;;;;;;;;4992869;28;20486;-64
2022/11/14 08:29:50;;;;;;;33.10;16.20;;;;;;;;;;4973778;28;20116;-63
2022/11/14 08:32:18;;;;;;;28.33;16.52;;;;;;;;;;4980396;28;20033;-63
2022/11/14 08:34:43;;;;;;;27.92;16.25;;;;;;;;;;4983815;28;20042;-64
2022/11/14 08:37:09;;;;;;;30.08;16.00;;;;;;;;;;4973597;28;20035;-62
2022/11/14 08:39:34;;;;;;;28.60;16.35;;;;;;;;;;4982617;28;20047;-63
2022/11/14 08:42:00;;;;;;;30.15;15.90;;;;;;;;;;4993125;28;20033;-62
2022/11/14 08:44:26;;;;;;;28.27;16.30;;;;;;;;;;4981490;28;20039;-63
2022/11/14 08:46:51;;;;;;;29.90;16.55;;;;;;;;;;4974625;28;20034;-62
2022/11/14 08:49:17;;;;;;;28.42;15.88;;;;;;;;;;4981197;28;20117;-64
2022/11/14 08:51:42;;;;;;;28.73;16.42;;;;;;;;;;4977719;28;20041;-64
2022/11/14 08:54:07;;;;;;;29.92;16.45;;;;;;;;;;4975177;28;20141;-63
2022/11/14 08:56:33;;;;;;;27.58;15.73;;;;;;;;;;4972384;28;20034;-63
2022/11/14 08:58:58;;;;;;;27.48;15.82;;;;;;;;;;4982983;28;20050;-63
2022/11/14 09:01:24;;;;;;;30.88;16.05;;;;;;;;;;4974962;28;20041;-63
2022/11/14 09:03:49;;;;;;;30.98;17.20;;;;;;;;;;4978661;28;20035;-63
2022/11/14 09:06:15;;;;;;;33.28;18.27;;;;;;;;;;4972984;28;20035;-64
2022/11/14 09:08:40;;;;;;;26.40;15.60;;;;;;;;;;5007352;28;20459;-64
2022/11/14 09:11:05;;;;;;;27.52;15.70;;;;;;;;;;4989937;28;20034;-64
2022/11/14 09:13:34;;;;;;;27.30;16.58;;;;;;;;;;4988034;28;20121;-65
2022/11/14 09:16:00;;;;;;;29.85;15.02;;;;;;;;;;4991230;28;20057;-64
2022/11/14 09:18:25;;;;;;;26.50;15.35;;;;;;;;;;4986388;28;20069;-65
2022/11/14 09:20:51;;;;;;;26.70;14.95;;;;;;;;;;4972666;28;20534;-64
2022/11/14 09:23:16;;;;;;;28.65;15.68;;;;;;;;;;4988427;28;20085;-65
2022/11/14 09:25:42;;;;;;;27.77;16.02;;;;;;;;;;4989236;28;20062;-64
2022/11/14 09:28:08;;;;;;;28.38;15.85;;;;;;;;;;4989060;28;20045;-62
2022/11/14 09:30:34;;;;;;;28.13;15.90;;;;;;;;;;4981494;28;20046;-63
2022/11/14 09:33:01;;;;;;;26.98;15.88;;;;;;;;;;4988487;28;20034;-63
2022/11/14 09:35:27;;;;;;;27.70;14.95;;;;;;;;;;4986042;28;20034;-63
2022/11/14 09:38:01;;;;;;;26.65;15.85;;;;;;;;;;4979312;28;20049;-63
2022/11/14 09:40:28;;;;;;;29.80;16.48;;;;;;;;;;4986736;28;20124;-66
2022/11/14 09:43:05;;;;;;;27.23;16.05;;;;;;;;;;4990098;28;20026;-65
2022/11/14 09:45:33;;;;;;;27.00;15.93;;;;;;;;;;4988347;28;20088;-65
2022/11/14 09:48:15;;;;;;;25.52;15.85;;;;;;;;;;4990236;28;20057;-64
2022/11/14 09:51:06;;;;;;;29.58;15.63;;;;;;;;;;4981665;28;20038;-64
2022/11/14 09:54:02;;;;;;;26.73;15.32;;;;;;;;;;4980035;28;20031;-62
2022/11/14 09:56:27;;;;;;;30.33;15.75;;;;;;;;;;4988164;28;20037;-67
2022/11/14 09:58:55;;;;;;;27.45;15.82;;;;;;;;;;4982784;28;21368;-63
2022/11/14 10:01:32;;;;;;;26.63;15.55;;;;;;;;;;4983989;28;20045;-64
2022/11/14 10:04:27;;;;;;;24.92;15.40;;;;;;;;;;4990292;28;20033;-64
2022/11/14 10:07:04;;;;;;;26.67;15.68;;;;;;;;;;4980501;28;20035;-63
2022/11/14 10:09:38;;;;;;;24.00;14.77;;;;;;;;;;5007643;28;20030;-63
2022/11/14 10:12:15;;;;;;;26.83;15.00;;;;;;;;;;4983511;28;20034;-62
2022/11/14 10:15:03;;;;;;;25.33;14.90;;;;;;;;;;4993775;28;20416;-62
2022/11/14 10:17:49;;;;;;;24.42;15.10;;;;;;;;;;4989488;28;20447;-63
2022/11/14 10:20:33;;;;;;;22.13;14.27;;;;;;;;;;4988857;28;20034;-62
2022/11/14 10:23:16;;;;;;;23.00;14.02;;;;;;;;;;4995424;28;20034;-62
2022/11/14 10:25:59;;;;;;;25.63;14.35;;;;;;;;;;4976862;28;20042;-62
2022/11/14 10:29:02;;;;;;;25.42;14.43;;;;;;;;;;4975644;28;20133;-63
2022/11/14 10:31:35;;;;;;;24.90;13.75;;;;;;;;;;4976762;28;20045;-64
2022/11/14 10:34:14;;;;;;;21.20;12.73;;;;;;;;;;4984379;28;20468;-64
2022/11/14 10:36:52;;;;;;;24.90;13.25;;;;;;;;;;4994404;28;20037;-62
2022/11/14 10:39:23;;;;;;;22.23;12.98;;;;;;;;;;4991864;28;20125;-62
2022/11/14 10:41:53;;;;;;;21.20;13.00;;;;;;;;;;4994622;28;20026;-62
2022/11/14 10:44:25;;;;;;;23.35;13.18;;;;;;;;;;4994466;28;20038;-62
2022/11/14 10:46:54;;;;;;;21.30;13.05;;;;;;;;;;4975126;28;20043;-64
2022/11/14 10:49:22;;;;;;;20.85;12.50;;;;;;;;;;4986375;28;20568;-63
2022/11/14 10:51:58;;;;;;;20.40;12.13;;;;;;;;;;4980865;28;20600;-62
2022/11/14 10:54:39;;;;;;;20.00;12.23;;;;;;;;;;4987523;28;20038;-62
2022/11/14 10:57:13;;;;;;;22.45;12.88;;;;;;;;;;4974337;28;20456;-63
2022/11/14 10:59:39;;;;;;;22.10;12.88;;;;;;;;;;4985414;28;20057;-64
2022/11/14 11:02:04;;;;;;;22.08;12.18;;;;;;;;;;4986140;28;20375;-64
2022/11/14 11:04:32;;;;;;;20.15;12.23;;;;;;;;;;4994633;28;20031;-63
2022/11/14 11:07:07;;;;;;;20.88;11.95;;;;;;;;;;4987798;28;20601;-63
2022/11/14 11:12:22;;;;;;;19.50;11.73;;;;;;;;;;4974693;28;20100;-64
2022/11/14 11:15:06;;;;;;;20.23;10.98;;;;;;;;;;4991508;28;20053;-64
2022/11/14 11:17:31;;;;;;;19.02;10.98;;;;;;;;;;4992599;28;20085;-64
2022/11/14 11:20:26;;;;;;;18.52;11.10;;;;;;;;;;4992002;28;20034;-64
2022/11/14 11:23:10;;;;;;;19.48;11.13;;;;;;;;;;4976641;28;20114;-63
2022/11/14 11:25:38;;;;;;;18.67;10.82;;;;;;;;;;4982222;28;20035;-62
2022/11/14 11:28:16;;;;;;;24.42;11.15;;;;;;;;;;4975737;28;20049;-61
2022/11/14 11:30:56;;;;;;;18.08;10.50;;;;;;;;;;4990776;28;20088;-63
2022/11/14 11:33:30;;;;;;;19.05;10.77;;;;;;;;;;4993642;28;20031;-63
2022/11/14 11:36:22;;;;;;;19.27;11.20;;;;;;;;;;4991951;28;20042;-63
2022/11/14 11:38:48;;;;;;;16.40;10.48;;;;;;;;;;4991940;28;20054;-64
2022/11/14 11:41:34;;;;;;;19.25;11.27;;;;;;;;;;4992903;28;20085;-64
2022/11/14 11:44:06;;;;;;;16.45;10.30;;;;;;;;;;4979514;28;20042;-63
2022/11/14 11:46:40;;;;;;;17.42;10.73;;;;;;;;;;4978635;28;20105;-62
2022/11/14 11:49:14;;;;;;;17.70;10.65;;;;;;;;;;5008926;28;20039;-62
2022/11/14 11:51:44;;;;;;;16.15;10.00;;;;;;;;;;4977732;28;20030;-65
2022/11/14 11:54:24;;;;;;;15.57;9.95;;;;;;;;;;4982313;28;20049;-63
2022/11/14 11:56:54;;;;;;;16.43;9.87;;;;;;;;;;4983177;28;20833;-62
2022/11/14 11:59:32;;;;;;;16.42;10.10;;;;;;;;;;4975924;28;20134;-65
2022/11/14 12:02:02;;;;;;;15.90;10.15;;;;;;;;;;4977935;28;20038;-64
2022/11/14 12:04:29;;;;;;;15.38;9.65;;;;;;;;;;4984298;28;20039;-64
2022/11/14 12:07:11;;;;;;;13.98;9.38;;;;;;;;;;4984608;28;20046;-63
2022/11/14 12:09:39;;;;;;;14.63;9.73;;;;;;;;;;4973297;28;20035;-62
2022/11/14 12:12:29;;;;;;;14.27;9.30;;;;;;;;;;4974507;28;20125;-62
2022/11/14 12:15:19;;;;;;;15.18;9.25;;;;;;;;;;4973658;28;20030;-62
2022/11/14 12:18:14;;;;;;;15.53;10.33;;;;;;;;;;4990869;28;20034;-62
2022/11/14 12:20:48;;;;;;;15.70;10.20;;;;;;;;;;4977361;28;20288;-61
2022/11/14 12:23:42;;;;;;;15.25;9.80;;;;;;;;;;4983382;28;20034;-61
2022/11/14 12:26:39;;;;;;;15.75;10.32;;;;;;;;;;4981760;28;20026;-61
2022/11/14 12:29:16;;;;;;;15.55;9.52;;;;;;;;;;4974475;28;20122;-62
2022/11/14 12:31:44;;;;;;;16.25;10.07;;;;;;;;;;4974108;28;20814;-62
2022/11/14 12:34:33;;;;;;;15.82;9.60;;;;;;;;;;4977077;28;20059;-63
2022/11/14 12:36:59;;;;;;;15.18;9.40;;;;;;;;;;4972511;28;20046;-61
2022/11/14 12:39:27;;;;;;;15.30;9.75;;;;;;;;;;4981111;28;20038;-62
2022/11/14 12:42:03;;;;;;;15.57;9.60;;;;;;;;;;4996670;28;20038;-61
2022/11/14 12:44:28;;;;;;;14.38;9.60;;;;;;;;;;4994345;28;20033;-63
2022/11/14 12:47:06;;;;;;;19.50;9.68;;;;;;;;;;4985847;28;20371;-61
2022/11/14 12:49:57;;;;;;;14.13;9.18;;;;;;;;;;4976283;28;20066;-62
2022/11/14 12:52:42;;;;;;;14.60;9.68;;;;;;;;;;4972823;28;20122;-63
2022/11/14 12:55:25;;;;;;;16.17;9.43;;;;;;;;;;4981816;28;20039;-61
2022/11/14 12:58:00;;;;;;;14.77;9.13;;;;;;;;;;4982338;28;20134;-62
2022/11/14 13:00:27;;;;;;;13.00;8.45;;;;;;;;;;4989607;28;20042;-63
2022/11/14 13:03:35;;;;;;;14.05;8.55;;;;;;;;;;4986145;28;20368;-62
2022/11/14 13:06:08;;;;;;;12.82;7.60;;;;;;;;;;4975004;28;20047;-60
2022/11/14 13:08:36;;;;;;;12.80;7.88;;;;;;;;;;4978426;28;20058;-63
2022/11/14 13:21:44;;;;;;;13.48;7.78;;;;;;;;;;4974047;28;20034;-65
2022/11/14 13:23:24;;;;;;;13.50;7.35;;;;;;;;;;4989218;28;20173;-64
2022/11/14 13:26:08;;;;;;;11.45;7.15;;;;;;;;;;4989211;28;20062;-63
2022/11/14 13:28:37;;;;;;;10.63;7.07;;;;;;;;;;4979391;28;20031;-62
2022/11/14 13:31:05;;;;;;;12.40;7.40;;;;;;;;;;4971530;28;20133;-64
2022/11/14 13:33:52;;;;;;;12.45;7.55;;;;;;;;;;4990254;28;20399;-63
2022/11/14 13:36:50;;;;;;;11.82;7.30;;;;;;;;;;4988509;28;20058;-65
2022/11/14 13:39:46;;;;;;;12.05;7.35;;;;;;;;;;4972094;28;20070;-62
2022/11/14 13:42:42;;;;;;;12.38;7.05;;;;;;;;;;4988733;28;20113;-63
2022/11/14 13:45:29;;;;;;;12.45;7.40;;;;;;;;;;4986416;28;20031;-63
2022/11/14 13:48:13;;;;;;;12.07;7.38;;;;;;;;;;4971181;28;20051;-65
2022/11/14 13:50:39;;;;;;;11.77;7.57;;;;;;;;;;4971015;28;20027;-62
2022/11/14 13:53:24;;;;;;;11.63;7.88;;;;;;;;;;4971467;28;20038;-63
2022/11/14 13:55:54;;;;;;;13.55;7.53;;;;;;;;;;4988734;28;20030;-63
2022/11/14 13:58:26;;;;;;;13.75;7.95;;;;;;;;;;4987048;28;20062;-62
2022/11/14 14:00:52;;;;;;;12.68;7.65;;;;;;;;;;4986428;28;20109;-63
2022/11/14 14:03:49;;;;;;;13.82;7.75;;;;;;;;;;4984073;28;20424;-63
2022/11/14 14:06:29;;;;;;;15.30;8.00;;;;;;;;;;4984961;28;20400;-62
2022/11/14 14:09:09;;;;;;;14.85;8.00;;;;;;;;;;4979997;28;20041;-62
2022/11/14 14:12:02;;;;;;;13.43;7.88;;;;;;;;;;4970784;28;20030;-63
2022/11/14 14:14:37;;;;;;;12.45;7.82;;;;;;;;;;4973106;28;20034;-62
2022/11/14 14:17:17;;;;;;;13.02;7.55;;;;;;;;;;4980559;28;20038;-62
2022/11/14 14:19:51;;;;;;;12.43;8.07;;;;;;;;;;4986444;28;20061;-62
2022/11/14 14:22:56;;;;;;;11.43;7.78;;;;;;;;;;4991903;28;20038;-62
2022/11/14 14:25:40;;;;;;;11.55;7.82;;;;;;;;;;4989311;28;20030;-64
2022/11/14 14:28:21;;;;;;;11.57;7.47;;;;;;;;;;4986039;28;20034;-63
2022/11/14 14:31:07;;;;;;;12.40;8.00;;;;;;;;;;4984896;28;20046;-62
2022/11/14 14:33:44;;;;;;;14.43;8.18;;;;;;;;;;5004815;28;20042;-63
2022/11/14 14:36:17;;;;;;;12.68;7.75;;;;;;;;;;4976321;28;20041;-63
2022/11/14 14:38:44;;;;;;;13.82;8.63;;;;;;;;;;4992879;28;20030;-64
2022/11/14 14:41:13;;;;;;;14.10;8.32;;;;;;;;;;4994359;28;20134;-64
2022/11/14 14:43:41;;;;;;;15.40;8.90;;;;;;;;;;4987658;28;20045;-61
2022/11/14 14:46:06;;;;;;;14.60;8.02;;;;;;;;;;4991456;28;20081;-64
2022/11/14 14:48:37;;;;;;;15.23;9.18;;;;;;;;;;5006601;28;20479;-64